Time;durP1;ratioP1;P1;durP2;ratioP2;P2;SDS_P1;SDS_P2;PMS_P1;PMS_P2;Temp;Humidity;BMP_temperature;BMP_pressure;BME280_temperature;BME280_humidity;BME280_pressure;Samples;Min_cycle;Max_cycle;Signal;HPM_P1;HPM_P2
2023/07/23 00:00:40;;;;;;;8.18;7.88;;;18.70;99.90;;;;;;5009012;28;20202;-64
2023/07/23 00:03:07;;;;;;;7.43;7.22;;;18.60;99.90;;;;;;5009482;28;20221;-62
2023/07/23 00:05:34;;;;;;;7.53;7.28;;;18.60;99.90;;;;;;5008922;28;20205;-65
2023/07/23 00:08:01;;;;;;;6.97;6.78;;;18.50;99.90;;;;;;5011576;28;20614;-62
2023/07/23 00:10:28;;;;;;;7.25;6.95;;;18.50;99.90;;;;;;5011313;28;20705;-62
2023/07/23 00:12:56;;;;;;;6.55;6.35;;;18.50;99.90;;;;;;5011443;28;20295;-65
2023/07/23 00:15:23;;;;;;;7.07;6.78;;;18.60;99.90;;;;;;5010923;28;20205;-64
2023/07/23 00:17:50;;;;;;;6.75;6.55;;;18.50;99.90;;;;;;5010048;28;20276;-63
2023/07/23 00:20:17;;;;;;;7.00;6.72;;;18.50;99.90;;;;;;5009167;28;20209;-65
2023/07/23 00:22:44;;;;;;;6.75;6.55;;;18.50;99.90;;;;;;5010465;28;20209;-62
2023/07/23 00:25:10;;;;;;;6.55;6.35;;;18.50;99.90;;;;;;5010179;28;20287;-63
2023/07/23 00:27:37;;;;;;;8.50;8.20;;;18.50;99.90;;;;;;5010143;28;20212;-63
2023/07/23 00:30:07;;;;;;;6.82;6.63;;;18.40;99.90;;;;;;5009364;28;20808;-63
2023/07/23 00:32:33;;;;;;;6.43;6.22;;;18.40;99.90;;;;;;5009724;28;20205;-62
2023/07/23 00:35:00;;;;;;;6.88;6.68;;;18.40;99.90;;;;;;5009730;28;20252;-62
2023/07/23 00:37:28;;;;;;;6.65;6.45;;;18.40;99.90;;;;;;5009892;28;20201;-62
2023/07/23 00:39:54;;;;;;;7.28;6.90;;;18.50;99.90;;;;;;5008253;28;20379;-63
2023/07/23 00:42:21;;;;;;;6.75;6.55;;;18.50;99.90;;;;;;5008734;28;20209;-63
2023/07/23 00:44:48;;;;;;;7.45;7.20;;;18.50;99.90;;;;;;5007735;28;20242;-62
2023/07/23 00:47:18;;;;;;;6.82;6.63;;;18.50;99.90;;;;;;5009873;28;20668;-62
2023/07/23 00:49:45;;;;;;;6.95;6.75;;;18.40;99.90;;;;;;5008957;28;20295;-61
2023/07/23 00:52:12;;;;;;;6.55;6.35;;;18.40;99.90;;;;;;5008617;28;20210;-66
2023/07/23 00:54:39;;;;;;;6.63;6.43;;;18.40;99.90;;;;;;5009854;28;20208;-65
2023/07/23 00:57:07;;;;;;;6.65;6.45;;;18.40;99.90;;;;;;5012858;28;20232;-65
2023/07/23 00:59:34;;;;;;;7.10;6.80;;;18.40;99.90;;;;;;5012387;28;20232;-65
2023/07/23 01:02:01;;;;;;;7.13;6.93;;;18.30;99.90;;;;;;5028248;28;20210;-65
2023/07/23 01:04:31;;;;;;;6.75;6.55;;;18.40;99.90;;;;;;5012180;28;20734;-63
2023/07/23 01:07:00;;;;;;;7.38;7.13;;;18.40;99.90;;;;;;5011813;28;20341;-64
2023/07/23 01:09:28;;;;;;;6.90;6.70;;;18.30;99.90;;;;;;5010926;28;20229;-63
2023/07/23 01:11:57;;;;;;;6.55;6.35;;;18.20;99.90;;;;;;5011559;28;20206;-64
2023/07/23 01:14:23;;;;;;;6.97;6.78;;;18.20;99.90;;;;;;5011706;28;20397;-64
2023/07/23 01:16:51;;;;;;;6.57;6.38;;;18.10;99.90;;;;;;5011778;28;20556;-62
2023/07/23 01:19:17;;;;;;;6.95;6.75;;;18.10;99.90;;;;;;5010840;28;20233;-64
2023/07/23 01:21:46;;;;;;;6.75;6.55;;;18.10;99.90;;;;;;5011865;28;20213;-62
2023/07/23 01:24:14;;;;;;;6.93;6.72;;;18.10;99.90;;;;;;5011549;28;20798;-62
2023/07/23 01:26:41;;;;;;;6.70;6.50;;;18.10;99.90;;;;;;5011287;28;20209;-63
2023/07/23 01:29:09;;;;;;;6.70;6.50;;;18.00;99.90;;;;;;5010664;28;20328;-63
2023/07/23 01:31:36;;;;;;;6.78;6.57;;;18.00;99.90;;;;;;5011609;28;20263;-63
2023/07/23 01:34:05;;;;;;;6.60;6.40;;;17.90;99.90;;;;;;5011307;28;20225;-63
2023/07/23 01:36:32;;;;;;;6.40;6.20;;;18.00;99.90;;;;;;5013444;28;20283;-63
2023/07/23 01:38:59;;;;;;;6.38;6.18;;;17.90;99.90;;;;;;4975486;28;1072370;-65
2023/07/23 01:41:27;;;;;;;6.65;6.45;;;17.90;99.90;;;;;;5012429;28;20628;-65
2023/07/23 01:43:55;;;;;;;6.57;6.38;;;17.90;99.90;;;;;;5012244;28;20225;-64
2023/07/23 01:46:21;;;;;;;6.30;6.10;;;17.90;99.90;;;;;;5012481;28;20215;-64
2023/07/23 01:48:48;;;;;;;6.30;6.10;;;17.90;99.90;;;;;;5012026;28;20225;-64
2023/07/23 01:51:15;;;;;;;6.80;6.60;;;17.80;99.90;;;;;;5011647;28;20694;-65
2023/07/23 01:53:42;;;;;;;6.47;6.28;;;17.90;99.90;;;;;;5011812;28;20202;-64
2023/07/23 01:56:09;;;;;;;6.60;6.40;;;17.90;99.90;;;;;;5011601;28;20209;-64
2023/07/23 01:58:37;;;;;;;6.47;6.28;;;17.90;99.90;;;;;;5011789;28;20221;-64
2023/07/23 02:01:04;;;;;;;6.50;6.30;;;17.70;99.90;;;;;;5007308;28;20255;-64
2023/07/23 02:03:31;;;;;;;6.50;6.30;;;17.70;99.90;;;;;;5011138;28;20225;-64
2023/07/23 02:06:00;;;;;;;6.40;6.20;;;17.70;99.90;;;;;;5011614;28;20205;-64
2023/07/23 02:08:27;;;;;;;6.30;6.10;;;17.70;99.90;;;;;;5011945;28;20275;-65
2023/07/23 02:10:59;;;;;;;6.07;5.88;;;17.70;99.90;;;;;;5020020;28;20212;-66
2023/07/23 02:13:26;;;;;;;6.10;5.90;;;17.70;99.90;;;;;;5024916;28;20189;-64
2023/07/23 02:15:54;;;;;;;6.40;6.20;;;17.70;99.90;;;;;;5027165;28;20239;-64
2023/07/23 02:18:21;;;;;;;6.50;6.30;;;17.60;99.90;;;;;;5024325;28;20233;-64
2023/07/23 02:20:48;;;;;;;6.22;6.03;;;17.60;99.90;;;;;;5014858;28;20227;-64
2023/07/23 02:23:16;;;;;;;6.22;6.03;;;17.60;99.90;;;;;;5012415;28;20884;-64
2023/07/23 02:25:43;;;;;;;6.25;6.05;;;17.60;99.90;;;;;;5011341;28;20213;-64
2023/07/23 02:28:10;;;;;;;5.82;5.63;;;17.60;99.90;;;;;;5011461;28;20229;-64
2023/07/23 02:30:37;;;;;;;6.03;5.82;;;17.50;99.90;;;;;;5010597;28;20205;-64
2023/07/23 02:33:05;;;;;;;6.10;5.90;;;17.50;99.90;;;;;;5011094;28;20301;-64
2023/07/23 02:35:36;;;;;;;6.43;6.22;;;17.50;99.90;;;;;;5011365;28;20197;-64
2023/07/23 02:38:02;;;;;;;6.25;6.05;;;17.50;99.90;;;;;;5011243;28;20213;-65
2023/07/23 02:40:31;;;;;;;6.50;6.20;;;17.40;99.90;;;;;;5009895;28;20205;-64
2023/07/23 02:42:58;;;;;;;6.30;6.10;;;17.30;99.90;;;;;;5011153;28;20219;-65
2023/07/23 02:45:25;;;;;;;6.40;6.20;;;17.30;99.90;;;;;;5010748;28;20340;-64
2023/07/23 02:47:52;;;;;;;6.40;6.20;;;17.20;99.90;;;;;;5015417;28;20205;-65
2023/07/23 02:50:20;;;;;;;6.38;6.18;;;17.20;99.90;;;;;;5019516;28;20303;-64
2023/07/23 02:52:47;;;;;;;5.90;5.70;;;17.10;99.90;;;;;;5010057;28;20209;-65
2023/07/23 02:55:13;;;;;;;6.18;5.97;;;17.10;99.90;;;;;;5011850;28;20209;-64
2023/07/23 02:57:40;;;;;;;6.55;6.35;;;17.10;99.90;;;;;;5013021;28;20205;-64
2023/07/23 03:00:08;;;;;;;6.18;5.97;;;17.10;99.90;;;;;;5028400;28;20293;-65
2023/07/23 03:02:35;;;;;;;5.90;5.70;;;17.10;99.90;;;;;;5029463;28;20205;-68
2023/07/23 03:05:02;;;;;;;6.30;6.10;;;17.10;99.90;;;;;;5025772;28;20217;-64
2023/07/23 03:07:33;;;;;;;6.10;5.90;;;17.10;99.90;;;;;;5010612;28;20289;-64
2023/07/23 03:10:00;;;;;;;6.10;5.90;;;17.10;99.90;;;;;;5009697;28;20221;-64
2023/07/23 03:12:26;;;;;;;6.30;6.10;;;17.10;99.90;;;;;;5010447;28;20675;-65
2023/07/23 03:14:54;;;;;;;6.40;6.20;;;17.10;99.90;;;;;;5010596;28;20205;-63
2023/07/23 03:17:21;;;;;;;6.10;5.90;;;17.10;99.90;;;;;;5010258;28;20205;-63
2023/07/23 03:19:47;;;;;;;5.90;5.70;;;17.10;99.90;;;;;;5009420;28;20368;-63
2023/07/23 03:22:14;;;;;;;6.40;6.10;;;17.10;99.90;;;;;;5010379;28;20215;-64
2023/07/23 03:24:42;;;;;;;6.28;6.07;;;17.10;99.90;;;;;;5010095;28;20229;-63
2023/07/23 03:27:09;;;;;;;6.07;5.88;;;17.10;99.90;;;;;;5010323;28;20217;-63
2023/07/23 03:29:36;;;;;;;6.10;5.90;;;17.10;99.90;;;;;;5009413;28;20672;-63
2023/07/23 03:32:03;;;;;;;5.80;5.60;;;17.10;99.90;;;;;;5010125;28;20205;-63
2023/07/23 03:34:30;;;;;;;5.90;5.70;;;17.10;99.90;;;;;;5010312;28;20205;-65
2023/07/23 03:36:57;;;;;;;6.40;6.20;;;17.10;99.90;;;;;;5009894;28;20212;-65
2023/07/23 03:39:24;;;;;;;6.63;6.32;;;17.10;99.90;;;;;;5009711;28;20241;-65
2023/07/23 03:41:52;;;;;;;6.20;6.00;;;17.10;99.90;;;;;;5011160;28;20208;-65
2023/07/23 03:44:19;;;;;;;6.25;6.05;;;17.10;99.90;;;;;;5010406;28;20265;-64
2023/07/23 03:47:02;;;;;;;6.20;6.00;;;17.10;99.90;;;;;;5012808;28;20210;-64
2023/07/23 03:49:29;;;;;;;6.53;6.32;;;17.10;99.90;;;;;;5009966;28;20279;-64
2023/07/23 03:51:56;;;;;;;6.18;5.97;;;17.10;99.90;;;;;;5011560;28;20209;-65
2023/07/23 03:54:23;;;;;;;6.00;5.80;;;17.00;99.90;;;;;;5011318;28;20787;-64
2023/07/23 03:56:51;;;;;;;6.10;5.90;;;17.00;99.90;;;;;;5010279;28;20563;-64
2023/07/23 03:59:18;;;;;;;6.28;6.07;;;17.00;99.90;;;;;;5009603;28;20228;-64
2023/07/23 04:01:45;;;;;;;6.43;6.22;;;17.00;99.90;;;;;;5011886;28;20205;-64
2023/07/23 04:04:11;;;;;;;8.18;7.88;;;17.00;99.90;;;;;;5009837;28;20225;-64
2023/07/23 04:06:38;;;;;;;6.30;6.10;;;16.90;99.90;;;;;;5009644;28;20205;-64
2023/07/23 04:09:05;;;;;;;6.40;6.20;;;17.00;99.90;;;;;;5009231;28;20240;-64
2023/07/23 04:11:32;;;;;;;5.88;5.68;;;17.00;99.90;;;;;;5007913;28;20220;-65
2023/07/23 04:14:00;;;;;;;6.43;6.22;;;17.00;99.90;;;;;;5009990;28;20240;-64
2023/07/23 04:16:27;;;;;;;6.15;5.95;;;17.10;99.90;;;;;;5009536;28;20193;-64
2023/07/23 04:18:54;;;;;;;6.10;5.90;;;16.90;99.90;;;;;;5009972;28;20229;-64
2023/07/23 04:21:22;;;;;;;6.05;5.85;;;16.90;99.90;;;;;;5009446;28;20205;-64
2023/07/23 04:23:50;;;;;;;6.00;5.80;;;17.00;99.90;;;;;;5009990;28;20209;-64
2023/07/23 04:26:18;;;;;;;6.10;5.90;;;17.00;99.90;;;;;;5009982;28;20585;-64
2023/07/23 04:28:46;;;;;;;6.38;6.18;;;17.10;99.90;;;;;;5009666;28;20589;-64
2023/07/23 04:31:14;;;;;;;6.43;6.22;;;17.10;99.90;;;;;;5012120;28;20209;-64
2023/07/23 04:33:41;;;;;;;6.03;5.82;;;17.10;99.90;;;;;;5013665;28;20215;-64
2023/07/23 04:36:08;;;;;;;6.32;6.13;;;17.20;99.90;;;;;;5015459;28;20296;-64
2023/07/23 04:38:34;;;;;;;6.03;5.82;;;17.10;99.90;;;;;;5018020;28;20320;-65
2023/07/23 04:41:01;;;;;;;6.32;6.13;;;17.20;99.90;;;;;;5013064;28;20302;-64
2023/07/23 04:43:28;;;;;;;6.20;6.00;;;17.30;99.90;;;;;;5013631;28;20241;-65
2023/07/23 04:45:55;;;;;;;6.22;6.03;;;17.20;99.90;;;;;;5013396;28;20687;-64
2023/07/23 04:48:23;;;;;;;6.30;6.10;;;17.20;99.90;;;;;;5013875;28;20316;-65
2023/07/23 04:50:56;;;;;;;6.30;6.10;;;17.20;99.90;;;;;;5012835;28;20213;-64
2023/07/23 04:53:23;;;;;;;6.18;5.97;;;17.20;99.90;;;;;;5012806;28;20263;-65
2023/07/23 04:55:51;;;;;;;6.30;6.10;;;17.30;99.90;;;;;;5013720;28;20233;-66
2023/07/23 04:58:18;;;;;;;6.35;6.10;;;17.30;99.90;;;;;;5013346;28;20315;-64
2023/07/23 05:00:45;;;;;;;6.22;6.03;;;17.40;99.90;;;;;;5012438;28;20209;-64
2023/07/23 05:03:12;;;;;;;6.40;6.20;;;17.50;99.90;;;;;;5013236;28;20247;-64
2023/07/23 05:05:41;;;;;;;6.05;5.85;;;17.60;99.90;;;;;;5013706;28;20229;-64
2023/07/23 05:08:08;;;;;;;6.15;5.95;;;17.70;99.90;;;;;;5013455;28;20223;-65
2023/07/23 05:10:35;;;;;;;6.10;5.90;;;17.80;99.90;;;;;;5013267;28;20289;-65
2023/07/23 05:13:02;;;;;;;6.00;5.80;;;17.80;99.90;;;;;;5012647;28;20209;-65
2023/07/23 05:15:29;;;;;;;6.38;6.18;;;17.90;99.90;;;;;;5013006;28;20209;-65
2023/07/23 05:17:56;;;;;;;5.97;5.78;;;17.90;99.90;;;;;;5012639;28;20205;-65
2023/07/23 05:20:23;;;;;;;6.30;6.10;;;18.00;99.90;;;;;;5011385;28;20555;-64
2023/07/23 05:22:51;;;;;;;6.20;5.93;;;18.10;99.90;;;;;;5012250;28;20216;-65
2023/07/23 05:25:18;;;;;;;6.78;6.57;;;18.10;99.90;;;;;;5011728;28;20244;-65
2023/07/23 05:27:45;;;;;;;6.20;6.00;;;18.10;99.90;;;;;;5011762;28;20300;-65
2023/07/23 05:30:13;;;;;;;5.95;5.75;;;18.20;99.90;;;;;;5011021;28;20708;-64
2023/07/23 05:32:40;;;;;;;6.28;6.07;;;18.20;99.90;;;;;;5011291;28;20275;-65
2023/07/23 05:35:08;;;;;;;6.40;6.20;;;18.20;99.90;;;;;;5011698;28;20201;-65
2023/07/23 05:37:35;;;;;;;6.25;6.05;;;18.30;99.90;;;;;;5011463;28;20206;-65
2023/07/23 05:40:04;;;;;;;6.30;6.10;;;18.40;99.90;;;;;;5009170;28;20241;-65
2023/07/23 05:42:31;;;;;;;6.53;6.22;;;18.50;99.90;;;;;;5011725;28;20700;-64
2023/07/23 05:44:58;;;;;;;6.40;6.20;;;18.50;99.90;;;;;;5012627;28;20225;-65
2023/07/23 05:47:25;;;;;;;6.30;6.10;;;18.50;99.90;;;;;;5012440;28;20211;-65
2023/07/23 05:49:52;;;;;;;6.60;6.40;;;18.60;99.90;;;;;;5011609;28;20337;-65
2023/07/23 05:52:19;;;;;;;6.72;6.53;;;18.60;99.90;;;;;;5012522;28;20292;-64
2023/07/23 05:54:45;;;;;;;6.60;6.40;;;18.60;99.90;;;;;;5012475;28;20202;-65
2023/07/23 05:57:14;;;;;;;6.47;6.28;;;18.60;99.90;;;;;;5012353;28;20209;-65
2023/07/23 05:59:41;;;;;;;6.63;6.43;;;18.70;99.90;;;;;;5011736;28;20669;-65
2023/07/23 06:02:08;;;;;;;6.82;6.53;;;18.70;99.90;;;;;;5012047;28;20213;-65
2023/07/23 06:04:36;;;;;;;6.75;6.55;;;18.80;99.90;;;;;;5012204;28;20308;-64
2023/07/23 06:07:03;;;;;;;6.90;6.60;;;18.80;99.90;;;;;;5012051;28;20252;-65
2023/07/23 06:09:30;;;;;;;6.60;6.40;;;18.90;99.90;;;;;;5011127;28;20225;-64
2023/07/23 06:11:56;;;;;;;7.10;6.90;;;18.90;99.90;;;;;;5012021;28;20579;-65
2023/07/23 06:14:25;;;;;;;6.78;6.57;;;18.90;99.90;;;;;;5012326;28;20300;-64
2023/07/23 06:16:52;;;;;;;7.13;6.93;;;18.90;99.90;;;;;;5012123;28;20541;-65
2023/07/23 06:19:19;;;;;;;7.38;7.18;;;18.90;99.90;;;;;;5010561;28;20225;-64
2023/07/23 06:21:45;;;;;;;7.43;7.22;;;18.90;99.90;;;;;;5011950;28;20309;-64
2023/07/23 06:24:12;;;;;;;7.47;7.18;;;18.90;99.90;;;;;;5011305;28;20209;-64
2023/07/23 06:26:39;;;;;;;7.32;7.13;;;18.90;99.90;;;;;;5012143;28;20723;-64
2023/07/23 06:29:06;;;;;;;7.20;6.93;;;19.00;99.90;;;;;;5013202;28;20229;-66
2023/07/23 06:31:34;;;;;;;7.22;7.03;;;19.10;99.90;;;;;;5020026;28;20618;-64
2023/07/23 06:34:01;;;;;;;7.55;7.25;;;19.20;99.90;;;;;;5020119;28;20272;-66
2023/07/23 06:36:28;;;;;;;7.40;7.20;;;19.30;99.90;;;;;;5019892;28;20269;-65
2023/07/23 06:38:54;;;;;;;8.55;8.25;;;19.30;99.90;;;;;;5017555;28;20324;-65
2023/07/23 06:41:21;;;;;;;7.90;7.60;;;19.40;99.90;;;;;;5010695;28;20300;-64
2023/07/23 06:43:48;;;;;;;7.38;7.18;;;19.50;99.90;;;;;;5010894;28;20301;-66
2023/07/23 06:46:18;;;;;;;7.47;7.28;;;19.70;99.90;;;;;;5010634;28;20259;-64
2023/07/23 06:48:46;;;;;;;7.30;7.07;;;19.80;99.90;;;;;;5010343;28;20315;-67
2023/07/23 06:51:13;;;;;;;7.55;7.25;;;19.80;99.90;;;;;;5010710;28;20205;-65
2023/07/23 06:53:40;;;;;;;7.50;7.30;;;19.90;99.90;;;;;;5009837;28;20589;-64
2023/07/23 06:56:08;;;;;;;8.18;7.88;;;19.90;99.90;;;;;;5010089;28;20311;-64
2023/07/23 06:58:38;;;;;;;7.97;7.68;;;19.90;99.90;;;;;;5009924;28;20232;-65
2023/07/23 07:01:06;;;;;;;7.85;7.55;;;20.00;99.90;;;;;;5009520;28;20235;-64
2023/07/23 07:03:32;;;;;;;8.40;8.10;;;20.40;99.90;;;;;;5009649;28;20209;-64
2023/07/23 07:06:01;;;;;;;7.97;7.68;;;20.70;99.90;;;;;;5010478;28;20280;-65
2023/07/23 07:08:29;;;;;;;8.63;8.32;;;21.10;99.90;;;;;;5006886;28;20313;-66
2023/07/23 07:11:00;;;;;;;8.13;7.82;;;21.40;99.90;;;;;;5009832;28;20222;-65
2023/07/23 07:13:28;;;;;;;7.95;7.65;;;21.70;99.90;;;;;;5009906;28;20251;-66
2023/07/23 07:15:54;;;;;;;8.02;7.72;;;22.00;99.90;;;;;;5010126;28;20204;-64
2023/07/23 07:18:21;;;;;;;7.63;7.35;;;22.10;99.90;;;;;;5010063;28;20233;-66
2023/07/23 07:20:54;;;;;;;8.45;8.15;;;22.30;99.90;;;;;;5009655;28;20216;-66
2023/07/23 07:23:23;;;;;;;8.23;7.93;;;22.50;99.90;;;;;;5010665;28;20309;-66
2023/07/23 07:25:50;;;;;;;8.60;8.30;;;22.90;99.90;;;;;;5009925;28;20704;-65
2023/07/23 07:28:17;;;;;;;8.38;8.07;;;23.20;99.90;;;;;;5010039;28;20229;-66
2023/07/23 07:30:44;;;;;;;8.43;8.13;;;23.40;99.90;;;;;;5008512;28;20263;-65
2023/07/23 07:33:11;;;;;;;8.55;8.25;;;23.70;99.90;;;;;;5010525;28;20200;-66
2023/07/23 07:35:38;;;;;;;8.60;8.30;;;24.00;99.90;;;;;;5011111;28;20240;-65
2023/07/23 07:38:05;;;;;;;8.70;8.40;;;24.20;99.90;;;;;;5009873;28;20300;-65
2023/07/23 07:40:33;;;;;;;7.95;7.50;;;24.50;99.90;;;;;;5021680;22;20239;-66
2023/07/23 07:43:00;;;;;;;7.38;7.18;;;24.50;99.90;;;;;;5009869;28;20296;-65
2023/07/23 07:45:27;;;;;;;7.13;6.93;;;24.30;99.90;;;;;;5010080;28;20264;-66
2023/07/23 07:47:54;;;;;;;7.10;6.90;;;24.50;99.90;;;;;;5010047;28;20271;-66
2023/07/23 07:50:20;;;;;;;7.32;7.05;;;24.80;99.90;;;;;;4990744;28;20236;-66
2023/07/23 07:52:47;;;;;;;7.20;7.00;;;25.10;99.90;;;;;;4989666;28;20206;-66
2023/07/23 07:55:14;;;;;;;6.85;6.65;;;25.30;99.90;;;;;;4991640;28;20205;-66
2023/07/23 07:57:43;;;;;;;7.07;6.88;;;25.50;99.90;;;;;;4991969;28;20300;-66
2023/07/23 08:00:11;;;;;;;7.13;6.93;;;25.60;99.90;;;;;;4990028;28;20228;-67
2023/07/23 08:02:39;;;;;;;7.43;7.13;;;25.80;99.90;;;;;;4990447;28;20210;-65
2023/07/23 08:05:07;;;;;;;7.45;7.25;;;26.00;99.90;;;;;;4993234;28;20306;-65
2023/07/23 08:07:35;;;;;;;7.47;7.28;;;26.00;99.90;;;;;;4994116;28;20206;-66
2023/07/23 08:10:03;;;;;;;7.50;7.20;;;26.00;99.90;;;;;;4993555;28;20248;-65
2023/07/23 08:12:31;;;;;;;7.18;6.97;;;26.00;99.90;;;;;;4994611;28;20206;-66
2023/07/23 08:15:00;;;;;;;7.78;7.47;;;26.00;99.90;;;;;;5004003;28;20239;-66
2023/07/23 08:17:27;;;;;;;7.50;7.30;;;26.00;99.90;;;;;;5014117;28;20228;-67
2023/07/23 08:19:54;;;;;;;7.32;7.13;;;25.90;99.90;;;;;;5013124;28;20232;-64
2023/07/23 08:22:21;;;;;;;7.70;7.40;;;26.00;99.90;;;;;;5014029;28;20209;-66
2023/07/23 08:24:49;;;;;;;7.63;7.43;;;26.00;99.90;;;;;;5013874;28;20209;-67
2023/07/23 08:27:21;;;;;;;9.13;8.82;;;25.90;99.90;;;;;;5014658;28;20241;-66
2023/07/23 08:29:48;;;;;;;8.02;7.72;;;25.70;99.90;;;;;;5013943;28;20226;-67
2023/07/23 08:32:19;;;;;;;7.70;7.40;;;25.70;99.90;;;;;;5014401;28;20213;-64
2023/07/23 08:34:46;;;;;;;7.50;7.30;;;26.10;99.90;;;;;;5014409;28;20220;-66
2023/07/23 08:37:14;;;;;;;7.53;7.25;;;26.10;99.90;;;;;;5014183;28;20202;-66
2023/07/23 08:39:41;;;;;;;7.18;6.97;;;25.90;99.90;;;;;;5012607;28;20737;-65
2023/07/23 08:42:24;;;;;;;7.32;7.13;;;26.00;99.90;;;;;;5014277;28;20205;-64
2023/07/23 08:45:23;;;;;;;7.50;7.30;;;25.90;99.90;;;;;;5014143;28;20202;-64
2023/07/23 08:48:01;;;;;;;7.60;7.40;;;26.10;99.90;;;;;;5014990;28;20213;-67
2023/07/23 08:50:28;;;;;;;8.10;7.80;;;26.40;99.90;;;;;;5015797;28;20225;-66
2023/07/23 08:52:56;;;;;;;7.72;7.50;;;26.40;99.90;;;;;;5014665;28;20209;-66
2023/07/23 08:55:23;;;;;;;7.65;7.43;;;26.70;99.90;;;;;;5014425;28;20221;-65
2023/07/23 08:57:51;;;;;;;8.10;7.80;;;26.70;99.90;;;;;;5014106;28;20205;-67
2023/07/23 09:00:18;;;;;;;8.27;7.97;;;26.50;99.90;;;;;;5013690;28;20235;-65
2023/07/23 09:02:45;;;;;;;8.50;8.20;;;26.70;99.90;;;;;;5015359;28;20578;-66
2023/07/23 09:05:14;;;;;;;8.40;8.10;;;26.80;99.90;;;;;;5016191;28;20260;-67
2023/07/23 09:07:41;;;;;;;8.43;8.13;;;26.70;99.90;;;;;;5014862;28;20235;-65
2023/07/23 09:10:09;;;;;;;9.00;8.70;;;26.60;99.90;;;;;;5012826;28;20229;-66
2023/07/23 09:12:41;;;;;;;8.93;8.63;;;26.60;99.90;;;;;;5013967;28;20288;-66
2023/07/23 09:15:09;;;;;;;8.98;8.68;;;26.60;99.90;;;;;;5013653;28;20205;-66
2023/07/23 09:17:36;;;;;;;8.40;8.10;;;26.70;99.90;;;;;;5012097;28;20197;-66
2023/07/23 09:20:03;;;;;;;8.50;8.20;;;26.80;99.90;;;;;;5013316;28;20233;-65
2023/07/23 09:22:32;;;;;;;8.30;8.00;;;26.80;99.90;;;;;;5013544;28;20231;-65
2023/07/23 09:25:00;;;;;;;8.40;8.10;;;26.80;99.90;;;;;;5013463;28;20344;-66
2023/07/23 09:27:35;;;;;;;8.30;8.00;;;26.70;99.90;;;;;;5013596;28;20738;-66
2023/07/23 09:30:02;;;;;;;8.73;8.43;;;26.80;99.90;;;;;;5012392;28;20225;-66
2023/07/23 09:32:29;;;;;;;8.38;8.07;;;26.70;99.90;;;;;;5013128;28;20815;-67
2023/07/23 09:34:56;;;;;;;7.90;7.60;;;26.60;99.90;;;;;;5013033;28;20216;-66
2023/07/23 09:37:23;;;;;;;8.00;7.70;;;26.60;99.90;;;;;;5012027;28;20216;-63
2023/07/23 09:39:55;;;;;;;8.30;8.00;;;26.60;99.90;;;;;;5012939;28;20237;-66
2023/07/23 09:42:22;;;;;;;8.00;7.70;;;26.60;99.90;;;;;;5014033;28;20201;-65
2023/07/23 09:44:49;;;;;;;8.20;7.90;;;26.70;99.90;;;;;;5012683;28;20217;-64
2023/07/23 09:47:17;;;;;;;7.60;7.40;;;26.80;99.90;;;;;;5012628;28;20232;-66
2023/07/23 09:49:44;;;;;;;7.93;7.65;;;26.80;99.90;;;;;;5012590;28;20699;-67
2023/07/23 09:52:11;;;;;;;7.90;7.60;;;26.90;99.90;;;;;;5016178;28;20205;-65
2023/07/23 09:54:38;;;;;;;8.07;7.78;;;26.80;99.90;;;;;;5013203;28;21060;-65
2023/07/23 09:57:08;;;;;;;7.95;7.65;;;26.90;99.90;;;;;;5012944;28;20327;-64
2023/07/23 09:59:36;;;;;;;7.75;7.45;;;26.90;99.90;;;;;;5012517;28;20233;-67
2023/07/23 10:02:06;;;;;;;7.80;7.60;;;26.90;99.90;;;;;;5014136;28;20209;-65
2023/07/23 10:04:36;;;;;;;8.02;7.72;;;27.00;99.90;;;;;;5023144;28;20197;-64
2023/07/23 10:07:03;;;;;;;7.68;7.47;;;27.10;99.90;;;;;;5025195;28;20217;-64
2023/07/23 10:09:30;;;;;;;7.97;7.68;;;27.30;99.90;;;;;;5023764;28;20236;-67
2023/07/23 10:11:57;;;;;;;8.10;7.80;;;27.70;99.90;;;;;;5021466;28;20817;-65
2023/07/23 10:14:25;;;;;;;8.00;7.70;;;28.00;99.90;;;;;;5019506;28;20241;-64
2023/07/23 10:16:54;;;;;;;8.63;8.32;;;28.10;99.90;;;;;;5013756;28;20288;-65
2023/07/23 10:19:21;;;;;;;8.40;8.10;;;28.30;99.90;;;;;;5013012;28;20222;-66
2023/07/23 10:21:50;;;;;;;8.30;8.00;;;28.20;99.90;;;;;;5015254;28;20586;-65
2023/07/23 10:24:17;;;;;;;17.85;17.13;;;28.40;99.90;;;;;;5010212;28;20757;-66
2023/07/23 10:26:48;;;;;;;8.48;8.18;;;28.30;99.90;;;;;;5011860;28;20231;-65
2023/07/23 10:29:18;;;;;;;11.80;11.40;;;28.50;99.90;;;;;;5010335;28;20225;-67
2023/07/23 10:31:47;;;;;;;8.35;7.95;;;28.80;99.90;;;;;;5019640;28;20201;-66
2023/07/23 10:34:42;;;;;;;9.32;9.02;;;29.00;99.90;;;;;;5012549;28;20567;-66
2023/07/23 10:37:14;;;;;;;9.65;9.35;;;29.00;99.90;;;;;;5014083;28;20216;-67
2023/07/23 10:39:41;;;;;;;8.70;8.40;;;29.00;99.90;;;;;;5011633;28;20229;-67
2023/07/23 10:42:08;;;;;;;73.10;68.38;;;29.00;99.90;;;;;;5012567;28;20220;-66
2023/07/23 10:44:38;;;;;;;8.65;8.35;;;28.80;99.90;;;;;;5013763;28;20571;-67
2023/07/23 10:47:31;;;;;;;20.13;19.02;;;28.80;99.90;;;;;;5012486;28;20649;-67
2023/07/23 10:50:12;;;;;;;12.57;12.07;;;29.00;99.90;;;;;;5148030;27;20559;-65
2023/07/23 10:52:38;;;;;;;18.48;17.77;;;28.90;99.90;;;;;;5150065;27;20223;-65
2023/07/23 10:55:08;;;;;;;8.70;8.40;;;28.90;99.90;;;;;;5149737;27;20204;-66
2023/07/23 10:57:39;;;;;;;8.77;8.48;;;29.00;99.90;;;;;;5149300;27;20703;-66
2023/07/23 11:00:19;;;;;;;8.77;8.48;;;28.90;99.90;;;;;;5148460;27;20220;-66
2023/07/23 11:02:47;;;;;;;9.00;8.70;;;28.80;99.90;;;;;;5149185;27;20196;-65
2023/07/23 11:05:15;;;;;;;8.95;8.65;;;28.90;99.90;;;;;;5148940;27;20917;-67
2023/07/23 11:07:42;;;;;;;8.90;8.60;;;29.00;99.90;;;;;;5148642;27;20205;-66
2023/07/23 11:10:20;;;;;;;9.48;9.18;;;29.10;99.90;;;;;;5148103;27;20224;-66
2023/07/23 11:12:47;;;;;;;8.68;8.38;;;29.10;99.90;;;;;;5148980;27;20748;-65
2023/07/23 11:15:15;;;;;;;8.45;8.15;;;29.00;99.90;;;;;;5148987;27;20200;-66
2023/07/23 11:17:42;;;;;;;9.77;9.48;;;29.10;99.90;;;;;;5148467;27;20200;-65
2023/07/23 11:20:10;;;;;;;8.95;8.65;;;29.20;99.90;;;;;;5149222;27;20231;-65
2023/07/23 11:22:43;;;;;;;10.70;10.30;;;29.40;99.90;;;;;;5150352;27;20208;-67
2023/07/23 11:25:16;;;;;;;11.07;10.68;;;29.50;99.90;;;;;;5157411;27;20201;-65
2023/07/23 11:27:43;;;;;;;9.43;9.10;;;29.40;99.90;;;;;;5150692;27;20679;-66
2023/07/23 11:30:14;;;;;;;18.23;17.40;;;29.50;99.90;;;;;;5151207;27;20707;-66
2023/07/23 11:32:41;;;;;;;10.18;9.77;;;29.50;99.90;;;;;;5153990;27;20205;-66
2023/07/23 11:35:09;;;;;;;9.13;8.82;;;29.30;99.90;;;;;;5152080;27;20205;-65
2023/07/23 11:37:36;;;;;;;9.45;9.05;;;29.20;99.90;;;;;;5153505;27;20200;-66
2023/07/23 11:40:05;;;;;;;9.52;9.23;;;29.20;99.90;;;;;;5151474;27;20212;-66
2023/07/23 11:42:33;;;;;;;9.07;8.77;;;29.20;99.90;;;;;;5151749;27;20200;-65
2023/07/23 11:45:01;;;;;;;8.95;8.65;;;29.20;99.90;;;;;;5153133;27;20209;-66
2023/07/23 11:47:28;;;;;;;10.85;10.45;;;29.20;99.90;;;;;;5152803;27;20209;-66
2023/07/23 11:49:55;;;;;;;9.85;9.55;;;29.20;99.90;;;;;;5151017;27;20232;-66
2023/07/23 11:52:23;;;;;;;9.20;8.90;;;29.10;99.90;;;;;;5151579;27;20696;-66
2023/07/23 11:54:50;;;;;;;8.95;8.65;;;29.10;99.90;;;;;;5153400;27;20205;-66
2023/07/23 11:57:18;;;;;;;9.77;9.48;;;29.20;99.90;;;;;;5160277;27;20297;-64
2023/07/23 11:59:45;;;;;;;9.02;8.73;;;29.30;99.90;;;;;;5151478;27;20224;-65
2023/07/23 12:02:12;;;;;;;9.80;9.50;;;29.40;99.90;;;;;;5144288;27;20292;-66
2023/07/23 12:04:39;;;;;;;8.75;8.45;;;29.40;99.90;;;;;;5139240;27;20292;-67
2023/07/23 12:07:06;;;;;;;9.18;8.88;;;29.40;99.90;;;;;;5139900;27;20209;-65
2023/07/23 12:09:35;;;;;;;8.55;8.25;;;29.30;99.90;;;;;;5141836;27;20228;-65
2023/07/23 12:12:02;;;;;;;8.30;8.00;;;29.20;99.90;;;;;;5143024;27;20608;-67
2023/07/23 12:14:30;;;;;;;9.30;8.98;;;29.20;99.90;;;;;;5144676;27;20304;-65
2023/07/23 12:16:57;;;;;;;8.45;8.15;;;29.30;99.90;;;;;;5149871;27;20205;-65
2023/07/23 12:19:24;;;;;;;8.15;7.85;;;29.20;99.90;;;;;;5144342;27;20217;-67
2023/07/23 12:21:54;;;;;;;9.23;8.93;;;29.30;99.90;;;;;;5147688;27;20212;-66
2023/07/23 12:24:23;;;;;;;8.15;7.85;;;29.20;99.90;;;;;;5142289;27;20208;-66
2023/07/23 12:26:51;;;;;;;8.90;8.60;;;29.10;99.90;;;;;;5138323;27;20265;-67
2023/07/23 12:29:19;;;;;;;8.50;8.20;;;29.10;99.90;;;;;;5134878;27;20239;-66
2023/07/23 12:31:49;;;;;;;7.60;7.40;;;29.00;99.90;;;;;;5135174;27;20197;-66
2023/07/23 12:34:17;;;;;;;7.60;7.30;;;28.90;99.90;;;;;;5135029;27;20198;-66
2023/07/23 12:36:44;;;;;;;8.10;7.70;;;28.80;99.90;;;;;;5140791;27;20230;-66
2023/07/23 12:39:11;;;;;;;8.23;7.93;;;28.80;99.90;;;;;;5137656;27;20221;-65
2023/07/23 12:41:38;;;;;;;8.20;7.90;;;28.80;99.90;;;;;;5135627;27;20205;-65
2023/07/23 12:44:06;;;;;;;8.10;7.80;;;28.70;99.90;;;;;;5130914;27;20257;-64
2023/07/23 12:46:33;;;;;;;7.70;7.50;;;28.70;99.90;;;;;;5116900;27;20201;-66
2023/07/23 12:49:01;;;;;;;8.10;7.80;;;28.60;99.90;;;;;;5116748;27;20666;-66